createdAt,value
2017-08-26T04:43:16.563Z,15.59
2017-08-26T04:44:16.557Z,15.53
2017-08-26T04:45:16.450Z,15.59
2017-08-26T04:46:16.443Z,15.57
2017-08-26T04:47:16.438Z,15.57
2017-08-26T04:48:16.429Z,15.53
2017-08-26T04:49:16.425Z,15.56
2017-08-26T04:50:16.520Z,15.51
2017-08-26T04:51:16.410Z,15.56
2017-08-26T04:52:16.404Z,15.54
2017-08-26T04:53:16.399Z,15.49
2017-08-26T04:54:16.398Z,15.54
2017-08-26T04:55:16.395Z,15.53
2017-08-26T04:56:16.481Z,15.57
2017-08-26T04:57:16.373Z,15.43
2017-08-26T04:58:16.368Z,15.41
2017-08-26T04:59:16.362Z,15.41
2017-08-26T05:00:16.355Z,15.47
2017-08-26T05:01:16.349Z,15.44
2017-08-26T05:02:16.443Z,15.41
2017-08-26T05:03:16.336Z,15.50
2017-08-26T05:04:16.331Z,15.49
2017-08-26T05:05:16.324Z,15.49
2017-08-26T05:06:16.320Z,15.46
2017-08-26T05:07:16.312Z,15.50
2017-08-26T05:08:16.405Z,15.53
2017-08-26T05:09:16.298Z,15.57
2017-08-26T05:10:16.293Z,15.64
2017-08-26T05:11:16.285Z,15.64
2017-08-26T05:12:16.279Z,15.57
2017-08-26T05:13:16.274Z,15.62
2017-08-26T05:14:16.368Z,15.62
2017-08-26T05:15:16.262Z,15.74
2017-08-26T05:16:16.253Z,15.72
2017-08-26T05:17:16.248Z,15.82
2017-08-26T05:18:16.242Z,15.89
2017-08-26T05:19:16.238Z,15.89
2017-08-26T05:20:16.329Z,15.96
2017-08-26T05:21:16.223Z,15.94
2017-08-26T05:22:16.218Z,15.92
2017-08-26T05:23:16.212Z,15.90
2017-08-26T05:24:16.305Z,15.94
2017-08-26T05:25:16.199Z,16.01
2017-08-26T05:26:16.193Z,16.08
2017-08-26T05:27:16.288Z,16.08
2017-08-26T05:28:16.182Z,16.05
2017-08-26T05:29:16.178Z,16.05
2017-08-26T05:30:16.171Z,16.14
2017-08-26T05:31:16.163Z,16.12
2017-08-26T05:32:16.156Z,16.15
2017-08-26T05:33:16.251Z,16.15
2017-08-26T05:34:16.146Z,16.20
2017-08-26T05:35:16.140Z,16.28
2017-08-26T05:36:16.133Z,16.41
2017-08-26T05:37:16.127Z,16.46
2017-08-26T05:38:16.123Z,16.50
2017-08-26T05:39:16.217Z,16.58
2017-08-26T05:40:16.112Z,16.82
2017-08-26T05:41:16.106Z,16.86
2017-08-26T05:42:16.099Z,16.86
2017-08-26T05:43:16.094Z,16.98
2017-08-26T05:44:16.087Z,17.06
2017-08-26T05:45:16.184Z,17.21
2017-08-26T05:46:16.087Z,17.22
2017-08-26T05:47:16.173Z,17.21
2017-08-26T05:48:16.066Z,17.19
2017-08-26T05:49:16.061Z,17.23
2017-08-26T05:50:16.055Z,17.28
2017-08-26T05:51:16.150Z,17.36
2017-08-26T05:52:16.045Z,17.38
2017-08-26T05:53:16.039Z,17.48
2017-08-26T05:54:16.034Z,17.49
2017-08-26T05:55:16.030Z,17.59
2017-08-26T05:56:16.024Z,17.66
2017-08-26T05:57:16.319Z,17.68
2017-08-26T05:58:16.014Z,17.71
2017-08-26T05:59:16.010Z,17.79
2017-08-26T06:00:16.004Z,17.87
2017-08-26T06:01:15.999Z,17.99
2017-08-26T06:02:15.994Z,18.05
2017-08-26T06:03:16.089Z,18.14
2017-08-26T06:04:15.984Z,18.29
2017-08-26T06:05:15.980Z,18.39
2017-08-26T06:06:15.975Z,18.51
2017-08-26T06:07:15.971Z,18.60
2017-08-26T06:08:15.966Z,18.73
2017-08-26T06:09:16.062Z,18.91
2017-08-26T06:10:15.960Z,18.81
2017-08-26T06:11:16.086Z,18.88
2017-08-26T06:12:15.948Z,19.04
2017-08-26T06:13:15.945Z,18.99
2017-08-26T06:14:15.940Z,19.07
2017-08-26T06:15:16.036Z,19.06
2017-08-26T06:16:15.931Z,19.04
2017-08-26T06:17:15.932Z,19.04
2017-08-26T06:18:15.922Z,19.07
2017-08-26T06:19:15.920Z,19.31
2017-08-26T06:20:15.915Z,19.31
2017-08-26T06:21:16.014Z,19.51
2017-08-26T06:22:15.908Z,19.48
2017-08-26T06:23:15.903Z,19.65
2017-08-26T06:24:15.905Z,19.77
2017-08-26T06:25:15.898Z,19.68
2017-08-26T06:26:15.893Z,19.86
2017-08-26T06:27:15.990Z,19.80
2017-08-26T06:28:15.886Z,19.94
2017-08-26T06:29:15.883Z,19.94
2017-08-26T06:30:15.879Z,20.03
2017-08-26T06:31:15.875Z,20.14
2017-08-26T06:32:15.871Z,20.24
2017-08-26T06:33:16.174Z,20.31
2017-08-26T06:34:15.880Z,20.48
2017-08-26T06:35:15.861Z,20.67
2017-08-26T06:36:15.857Z,20.95
2017-08-26T06:37:15.855Z,21.24
2017-08-26T06:38:15.855Z,21.28
2017-08-26T06:39:15.949Z,21.62
2017-08-26T06:40:15.844Z,22.09
2017-08-26T06:41:15.843Z,22.37
2017-08-26T06:42:15.939Z,22.91
2017-08-26T06:43:15.836Z,23.35
2017-08-26T06:44:15.832Z,23.75
2017-08-26T06:45:15.930Z,24.35
2017-08-26T06:46:15.828Z,24.25
2017-08-26T06:47:15.825Z,24.34
2017-08-26T06:48:15.822Z,24.25
2017-08-26T06:49:15.820Z,23.95
2017-08-26T06:50:15.819Z,23.72
2017-08-26T06:51:16.117Z,23.36
2017-08-26T06:52:15.814Z,23.12
2017-08-26T06:53:15.813Z,23.05
2017-08-26T06:54:15.811Z,22.98
2017-08-26T06:55:15.910Z,22.90
2017-08-26T06:56:15.808Z,22.75
2017-08-26T06:57:16.056Z,22.55
2017-08-26T06:58:15.805Z,22.27
2017-08-26T06:59:15.803Z,22.18
2017-08-26T07:00:15.799Z,21.92
2017-08-26T07:01:15.798Z,21.59
2017-08-26T07:02:15.798Z,21.28
2017-08-26T07:03:15.893Z,20.98
2017-08-26T07:04:15.792Z,20.79
2017-08-26T07:05:15.789Z,20.50
2017-08-26T07:06:15.788Z,20.23
2017-08-26T07:07:15.788Z,20.03
2017-08-26T07:08:15.784Z,19.96
2017-08-26T07:09:15.881Z,20.01
2017-08-26T07:10:15.779Z,20.03
2017-08-26T07:11:15.778Z,19.96
2017-08-26T07:12:15.775Z,19.95
2017-08-26T07:13:15.771Z,19.98
2017-08-26T07:14:15.770Z,19.94
2017-08-26T07:15:15.867Z,19.87
2017-08-26T07:16:15.865Z,19.86
2017-08-26T07:17:15.763Z,19.91
2017-08-26T07:18:15.760Z,20.03
2017-08-26T07:19:15.758Z,20.02
2017-08-26T07:20:15.755Z,20.31
2017-08-26T07:21:15.854Z,20.70
2017-08-26T07:22:15.753Z,20.97
2017-08-26T07:23:15.754Z,21.17
2017-08-26T07:24:15.751Z,21.44
2017-08-26T07:25:15.753Z,21.71
2017-08-26T07:26:15.754Z,21.92
2017-08-26T07:27:15.856Z,22.27
2017-08-26T07:28:15.853Z,22.47
2017-08-26T07:29:15.758Z,22.54
2017-08-26T07:30:15.760Z,22.62
2017-08-26T07:31:15.763Z,22.60
2017-08-26T07:32:15.920Z,22.52
2017-08-26T07:33:15.870Z,22.57
2017-08-26T07:34:15.774Z,22.57
2017-08-26T07:35:15.779Z,22.33
2017-08-26T07:36:15.781Z,22.24
2017-08-26T07:37:15.786Z,22.12
2017-08-26T07:38:15.790Z,22.10
2017-08-26T07:39:15.896Z,22.03
2017-08-26T07:40:15.799Z,21.96
2017-08-26T07:41:15.805Z,22.05
2017-08-26T07:42:15.808Z,22.09
2017-08-26T07:43:15.812Z,22.09
2017-08-26T07:44:15.813Z,22.02
2017-08-26T07:45:15.921Z,22.03
2017-08-26T07:46:15.822Z,22.17
2017-08-26T07:47:15.826Z,22.15
2017-08-26T07:48:15.830Z,22.22
2017-08-26T07:49:15.831Z,22.20
2017-08-26T07:50:15.933Z,22.21
2017-08-26T07:51:15.936Z,22.18
2017-08-26T07:52:15.841Z,22.07
2017-08-26T07:53:15.842Z,21.91
2017-08-26T07:54:15.879Z,22.06
2017-08-26T07:55:15.849Z,21.96
2017-08-26T07:56:15.850Z,22.02
2017-08-26T07:57:15.951Z,21.94
2017-08-26T07:58:15.853Z,21.99
2017-08-26T07:59:15.855Z,22.05
2017-08-26T08:00:15.857Z,21.96
2017-08-26T08:01:15.959Z,21.92
2017-08-26T08:02:15.983Z,21.94
2017-08-26T08:03:15.964Z,21.82
2017-08-26T08:04:15.961Z,21.91
2017-08-26T08:05:15.963Z,21.94
2017-08-26T08:06:15.865Z,22.10
2017-08-26T08:07:15.922Z,22.18
2017-08-26T08:08:15.865Z,22.03
2017-08-26T08:09:15.867Z,21.99
2017-08-26T08:10:15.968Z,21.94
2017-08-26T08:11:15.869Z,21.80
2017-08-26T08:12:15.869Z,21.80
2017-08-26T08:13:15.970Z,21.69
2017-08-26T08:14:15.870Z,21.68
2017-08-26T08:15:15.876Z,21.65
2017-08-26T08:16:15.971Z,21.61
2017-08-26T08:17:15.871Z,21.61
2017-08-26T08:18:15.941Z,21.64
2017-08-26T08:19:15.872Z,21.54
2017-08-26T08:20:15.869Z,21.43
2017-08-26T08:21:15.869Z,21.44
2017-08-26T08:22:15.973Z,21.24
2017-08-26T08:23:15.871Z,21.19
2017-08-26T08:24:15.867Z,21.24
2017-08-26T08:25:15.868Z,21.27
2017-08-26T08:26:15.868Z,21.24
2017-08-26T08:27:15.866Z,21.16
2017-08-26T08:28:15.964Z,21.13
2017-08-26T08:29:15.866Z,21.21
2017-08-26T08:30:15.865Z,21.24
2017-08-26T08:31:15.865Z,21.38
2017-08-26T08:32:15.863Z,21.38
2017-08-26T08:33:15.962Z,21.46
2017-08-26T08:34:15.961Z,21.58
2017-08-26T08:35:15.861Z,21.64
2017-08-26T08:36:15.861Z,21.62
2017-08-26T08:37:15.860Z,21.61
2017-08-26T08:38:15.857Z,21.61
2017-08-26T08:39:15.957Z,21.58
2017-08-26T08:40:15.954Z,21.53
2017-08-26T08:41:15.857Z,21.65
2017-08-26T08:42:15.852Z,21.59
2017-08-26T08:43:15.851Z,21.67
2017-08-26T08:44:15.850Z,21.71
2017-08-26T08:45:15.850Z,21.77
2017-08-26T08:46:15.950Z,21.82
2017-08-26T08:47:15.984Z,21.92
2017-08-26T08:48:15.846Z,21.80
2017-08-26T08:49:15.845Z,21.80
2017-08-26T08:50:15.844Z,21.80
2017-08-26T08:51:15.843Z,21.79
2017-08-26T08:52:15.941Z,21.67
2017-08-26T08:53:15.841Z,21.86
2017-08-26T08:54:15.839Z,21.91
2017-08-26T08:55:15.838Z,22.03
2017-08-26T08:56:15.851Z,22.18
2017-08-26T08:57:15.837Z,22.22
2017-08-26T08:58:15.938Z,22.35
2017-08-26T08:59:15.835Z,22.54
2017-08-26T09:00:15.833Z,22.68
2017-08-26T09:01:15.832Z,22.64
2017-08-26T09:02:15.832Z,22.65
2017-08-26T09:03:15.831Z,22.80
2017-08-26T09:04:15.931Z,22.86
2017-08-26T09:05:15.839Z,22.94
2017-08-26T09:06:15.928Z,23.01
2017-08-26T09:07:15.829Z,23.09
2017-08-26T09:08:15.826Z,23.23
2017-08-26T09:09:15.826Z,23.35
2017-08-26T09:10:15.926Z,23.43
2017-08-26T09:11:15.825Z,23.68
2017-08-26T09:12:15.828Z,23.65
2017-08-26T09:13:15.825Z,23.78
2017-08-26T09:14:15.825Z,23.93
2017-08-26T09:15:15.825Z,24.12
2017-08-26T09:16:15.923Z,24.18
2017-08-26T09:17:15.824Z,24.10
2017-08-26T09:18:15.827Z,24.25
2017-08-26T09:19:15.824Z,24.35
2017-08-26T09:20:15.823Z,24.42
2017-08-26T09:21:15.823Z,24.24
2017-08-26T09:22:15.926Z,24.06
2017-08-26T09:23:15.824Z,24.22
2017-08-26T09:24:15.824Z,24.16
2017-08-26T09:25:15.824Z,24.18
2017-08-26T09:26:15.827Z,24.15
2017-08-26T09:27:15.825Z,24.09
2017-08-26T09:28:15.932Z,24.12
2017-08-26T09:29:15.826Z,24.12
2017-08-26T09:30:15.825Z,24.22
2017-08-26T09:31:15.827Z,24.22
2017-08-26T09:32:15.925Z,24.20
2017-08-26T09:33:15.825Z,24.08
2017-08-26T09:34:15.926Z,24.03
2017-08-26T09:35:15.827Z,24.06
2017-08-26T09:36:15.827Z,23.95
2017-08-26T09:37:15.826Z,24.03
2017-08-26T09:38:15.827Z,24.05
2017-08-26T09:39:15.827Z,24.09
2017-08-26T09:40:15.925Z,24.16
2017-08-26T09:41:15.825Z,24.32
2017-08-26T09:42:15.928Z,24.30
2017-08-26T09:43:15.841Z,24.43
2017-08-26T09:44:15.827Z,24.40
2017-08-26T09:45:15.826Z,24.45
2017-08-26T09:46:15.929Z,24.50
2017-08-26T09:47:15.828Z,24.43
2017-08-26T09:48:15.928Z,24.39
2017-08-26T09:49:15.828Z,24.34
2017-08-26T09:50:15.829Z,24.28
2017-08-26T09:51:15.832Z,24.24
2017-08-26T09:52:15.930Z,24.32
2017-08-26T09:53:15.830Z,24.43
2017-08-26T09:54:15.831Z,24.52
2017-08-26T09:55:15.832Z,24.64
2017-08-26T09:56:15.829Z,24.67
2017-08-26T09:57:15.833Z,24.80
2017-08-26T09:58:15.933Z,24.77
2017-08-26T09:59:15.932Z,24.93
2017-08-26T10:00:15.832Z,25.06
2017-08-26T10:01:15.833Z,25.24
2017-08-26T10:02:15.834Z,25.43
2017-08-26T10:03:15.835Z,25.70
2017-08-26T10:04:15.833Z,25.90
2017-08-26T10:05:15.940Z,25.90
2017-08-26T10:06:15.835Z,25.92
2017-08-26T10:07:15.837Z,25.70
2017-08-26T10:08:15.837Z,25.61
2017-08-26T10:09:15.838Z,25.42
2017-08-26T10:10:15.840Z,25.38
2017-08-26T10:11:15.941Z,25.50
2017-08-26T10:12:15.870Z,25.61
2017-08-26T10:13:15.842Z,25.70
2017-08-26T10:14:15.843Z,25.79
2017-08-26T10:15:15.846Z,25.90
2017-08-26T10:16:15.845Z,25.94
2017-08-26T10:17:15.946Z,25.92
2017-08-26T10:18:15.949Z,25.95
2017-08-26T10:19:15.860Z,25.94
2017-08-26T10:20:16.050Z,25.98
2017-08-26T10:21:15.851Z,25.95
2017-08-26T10:22:15.853Z,25.88
2017-08-26T10:23:15.853Z,25.88
2017-08-26T10:24:16.110Z,25.99
2017-08-26T10:25:15.855Z,26.06
2017-08-26T10:26:15.857Z,25.92
2017-08-26T10:27:15.859Z,26.07
2017-08-26T10:28:15.859Z,25.98
2017-08-26T10:29:15.861Z,26.07
2017-08-26T10:30:15.962Z,25.98
2017-08-26T10:31:15.864Z,25.72
2017-08-26T10:32:15.866Z,25.72
2017-08-26T10:33:15.867Z,25.47
2017-08-26T10:34:15.866Z,25.51
2017-08-26T10:35:15.869Z,25.45
2017-08-26T10:36:15.970Z,25.46
2017-08-26T10:37:15.873Z,25.50
2017-08-26T10:38:15.873Z,25.46
2017-08-26T10:39:15.875Z,25.42
2017-08-26T10:40:15.876Z,25.54
2017-08-26T10:41:15.875Z,25.73
2017-08-26T10:42:15.980Z,25.77
2017-08-26T10:43:15.880Z,25.83
2017-08-26T10:44:15.882Z,26.07
2017-08-26T10:45:15.886Z,26.40
2017-08-26T10:46:15.885Z,26.40
2017-08-26T10:47:15.887Z,26.44
2017-08-26T10:48:15.990Z,26.40
2017-08-26T10:49:15.889Z,26.37
2017-08-26T10:50:15.892Z,26.09
2017-08-26T10:51:15.893Z,25.95
2017-08-26T10:52:15.893Z,25.87
2017-08-26T10:53:15.895Z,25.77
2017-08-26T10:54:16.002Z,25.69
2017-08-26T10:55:15.898Z,25.65
2017-08-26T10:56:15.906Z,25.67
2017-08-26T10:57:15.903Z,25.70
2017-08-26T10:58:15.903Z,25.79
2017-08-26T10:59:16.043Z,25.73
2017-08-26T11:00:16.006Z,25.88
2017-08-26T11:01:15.907Z,25.94
2017-08-26T11:02:15.965Z,25.94
2017-08-26T11:03:15.913Z,26.01
2017-08-26T11:04:15.912Z,25.94
2017-08-26T11:05:15.913Z,25.92
2017-08-26T11:06:16.217Z,25.92
2017-08-26T11:07:15.918Z,25.90
2017-08-26T11:08:15.919Z,25.76
2017-08-26T11:09:16.022Z,25.70
2017-08-26T11:10:15.924Z,25.77
2017-08-26T11:11:15.923Z,25.72
2017-08-26T11:12:16.026Z,25.79
2017-08-26T11:13:15.926Z,25.95
2017-08-26T11:14:15.929Z,26.10
2017-08-26T11:15:15.931Z,26.13
2017-08-26T11:16:15.931Z,26.05
2017-08-26T11:17:15.933Z,26.13
2017-08-26T11:18:16.035Z,26.21
2017-08-26T11:19:15.936Z,26.32
2017-08-26T11:20:15.937Z,26.44
2017-08-26T11:21:15.942Z,26.73
2017-08-26T11:22:15.940Z,26.82
2017-08-26T11:23:15.944Z,26.80
2017-08-26T11:24:16.043Z,26.82
2017-08-26T11:25:15.947Z,26.84
2017-08-26T11:26:15.948Z,26.76
2017-08-26T11:27:15.954Z,26.63
2017-08-26T11:28:15.952Z,26.47
2017-08-26T11:29:15.954Z,26.43
2017-08-26T11:30:16.054Z,26.40
2017-08-26T11:31:15.959Z,26.37
2017-08-26T11:32:15.960Z,26.35
2017-08-26T11:33:15.963Z,26.37
2017-08-26T11:34:15.963Z,26.40
2017-08-26T11:35:15.965Z,26.50
2017-08-26T11:36:16.066Z,26.54
2017-08-26T11:37:15.981Z,26.63
2017-08-26T11:38:15.971Z,26.69
2017-08-26T11:39:15.972Z,26.77
2017-08-26T11:40:15.974Z,26.88
2017-08-26T11:41:15.975Z,26.94
2017-08-26T11:42:16.076Z,27.00
2017-08-26T11:43:15.980Z,27.07
2017-08-26T11:44:15.981Z,27.04
2017-08-26T11:45:15.983Z,27.04
2017-08-26T11:46:15.984Z,27.03
2017-08-26T11:47:15.988Z,27.03
2017-08-26T11:48:16.087Z,27.07
2017-08-26T11:49:15.990Z,27.13
2017-08-26T11:50:15.993Z,27.17
2017-08-26T11:51:15.995Z,27.37
2017-08-26T11:52:16.000Z,27.39
2017-08-26T11:53:15.999Z,27.46
2017-08-26T11:54:16.301Z,27.66
2017-08-26T11:55:16.004Z,27.74
2017-08-26T11:56:16.005Z,27.79
2017-08-26T11:57:16.009Z,27.75
2017-08-26T11:58:16.011Z,27.49
2017-08-26T11:59:16.010Z,27.25
2017-08-26T12:00:16.112Z,27.04
2017-08-26T12:01:16.014Z,26.82
2017-08-26T12:02:16.018Z,26.80
2017-08-26T12:03:16.021Z,26.72
2017-08-26T12:04:16.023Z,26.70
2017-08-26T12:05:16.025Z,26.67
2017-08-26T12:06:16.128Z,26.44
2017-08-26T12:07:16.035Z,26.39
2017-08-26T12:08:16.031Z,26.36
2017-08-26T12:09:16.033Z,26.21
2017-08-26T12:10:16.042Z,26.05
2017-08-26T12:11:16.039Z,26.05
2017-08-26T12:12:16.137Z,25.92
2017-08-26T12:13:16.041Z,25.82
2017-08-26T12:14:16.042Z,25.76
2017-08-26T12:15:16.045Z,25.75
2017-08-26T12:16:16.045Z,25.72
2017-08-26T12:17:16.047Z,25.83
2017-08-26T12:18:16.150Z,25.87
2017-08-26T12:19:16.051Z,25.92
2017-08-26T12:20:16.051Z,26.01
2017-08-26T12:21:16.052Z,26.10
2017-08-26T12:22:16.057Z,26.18
2017-08-26T12:23:16.057Z,26.43
2017-08-26T12:24:16.159Z,26.39
2017-08-26T12:25:16.061Z,26.47
2017-08-26T12:26:16.067Z,26.50
2017-08-26T12:27:16.063Z,26.48
2017-08-26T12:28:16.065Z,26.52
2017-08-26T12:29:16.066Z,26.69
2017-08-26T12:30:16.167Z,26.81
2017-08-26T12:31:16.173Z,26.92
2017-08-26T12:32:16.070Z,26.80
2017-08-26T12:33:16.073Z,26.87
2017-08-26T12:34:16.075Z,26.67
2017-08-26T12:35:16.077Z,26.57
2017-08-26T12:36:16.078Z,26.40
2017-08-26T12:37:16.178Z,26.37
2017-08-26T12:38:16.084Z,26.37
2017-08-26T12:39:16.084Z,26.35
2017-08-26T12:40:16.085Z,26.37
2017-08-26T12:41:16.086Z,26.36
2017-08-26T12:42:16.088Z,26.39
2017-08-26T12:43:16.192Z,26.21
2017-08-26T12:44:16.093Z,26.30
2017-08-26T12:45:16.131Z,26.29
2017-08-26T12:46:16.094Z,26.39
2017-08-26T12:47:16.098Z,26.40
2017-08-26T12:48:16.108Z,26.40
2017-08-26T12:49:16.200Z,26.39
2017-08-26T12:50:16.101Z,26.25
2017-08-26T12:51:16.104Z,26.21
2017-08-26T12:52:16.105Z,26.05
2017-08-26T12:53:16.104Z,26.18
2017-08-26T12:54:16.109Z,26.21
2017-08-26T12:55:16.359Z,26.40
2017-08-26T12:56:16.110Z,26.44
2017-08-26T12:57:16.112Z,26.30
2017-08-26T12:58:16.112Z,26.44
2017-08-26T12:59:16.114Z,26.37
2017-08-26T13:00:16.116Z,26.50
2017-08-26T13:01:16.218Z,26.43
2017-08-26T13:02:16.120Z,26.50
2017-08-26T13:03:16.120Z,26.62
2017-08-26T13:04:16.135Z,26.77
2017-08-26T13:05:16.124Z,26.94
2017-08-26T13:06:16.125Z,27.07
2017-08-26T13:07:16.226Z,27.18
2017-08-26T13:08:16.128Z,27.25
2017-08-26T13:09:16.130Z,27.17
2017-08-26T13:10:16.137Z,27.04
2017-08-26T13:11:16.134Z,26.99
2017-08-26T13:12:16.133Z,27.03
2017-08-26T13:13:16.238Z,27.14
2017-08-26T13:14:16.138Z,27.09
2017-08-26T13:15:16.147Z,26.94
2017-08-26T13:16:16.140Z,26.81
2017-08-26T13:17:16.143Z,26.72
2017-08-26T13:18:16.145Z,26.76
2017-08-26T13:19:16.247Z,26.82
2017-08-26T13:20:16.147Z,27.00
2017-08-26T13:21:16.150Z,27.13
2017-08-26T13:22:16.152Z,27.19
2017-08-26T13:23:16.153Z,27.32
2017-08-26T13:24:16.153Z,27.22
2017-08-26T13:25:16.258Z,27.37
2017-08-26T13:26:16.159Z,27.39
2017-08-26T13:27:16.167Z,27.49
2017-08-26T13:28:16.161Z,27.54
2017-08-26T13:29:16.165Z,27.59
2017-08-26T13:30:16.166Z,27.63
2017-08-26T13:31:16.268Z,27.46
2017-08-26T13:32:16.170Z,27.37
2017-08-26T13:33:16.173Z,27.47
2017-08-26T13:34:16.175Z,27.59
2017-08-26T13:35:16.176Z,27.63
2017-08-26T13:36:16.177Z,27.70
2017-08-26T13:37:16.281Z,27.65
2017-08-26T13:38:16.183Z,27.75
2017-08-26T13:39:16.187Z,27.75
2017-08-26T13:40:16.186Z,27.94
2017-08-26T13:41:16.189Z,27.99
2017-08-26T13:42:16.190Z,27.93
2017-08-26T13:43:16.293Z,27.87
2017-08-26T13:44:16.194Z,27.94
2017-08-26T13:45:16.197Z,28.02
2017-08-26T13:46:16.199Z,28.00
2017-08-26T13:47:16.202Z,28.11
2017-08-26T13:48:16.204Z,28.09
2017-08-26T13:49:16.306Z,28.19
2017-08-26T13:50:16.209Z,28.21
2017-08-26T13:51:16.212Z,28.36
2017-08-26T13:52:16.214Z,28.41
2017-08-26T13:53:16.218Z,28.33
2017-08-26T13:54:16.219Z,28.36
2017-08-26T13:55:16.322Z,28.33
2017-08-26T13:56:16.224Z,28.37
2017-08-26T13:57:16.226Z,28.36
2017-08-26T13:58:16.228Z,28.44
2017-08-26T13:59:16.232Z,28.44
2017-08-26T14:00:16.234Z,28.46
2017-08-26T14:01:16.337Z,28.41
2017-08-26T14:02:16.239Z,28.39
2017-08-26T14:03:16.241Z,28.37
2017-08-26T14:04:16.244Z,28.29
2017-08-26T14:05:16.248Z,28.24
2017-08-26T14:06:16.250Z,28.22
2017-08-26T14:07:16.353Z,28.14
2017-08-26T14:08:16.256Z,28.09
2017-08-26T14:09:16.260Z,28.04
2017-08-26T14:10:16.261Z,28.06
2017-08-26T14:11:16.264Z,27.97
2017-08-26T14:12:16.267Z,27.92
2017-08-26T14:13:16.518Z,27.88
2017-08-26T14:14:16.272Z,27.82
2017-08-26T14:15:16.274Z,27.88
2017-08-26T14:16:16.275Z,27.79
2017-08-26T14:17:16.279Z,27.79
2017-08-26T14:18:16.280Z,27.75
2017-08-26T14:19:16.384Z,27.66
2017-08-26T14:20:16.284Z,27.74
2017-08-26T14:21:16.287Z,27.78
2017-08-26T14:22:16.292Z,27.65
2017-08-26T14:23:16.293Z,27.63
2017-08-26T14:24:16.294Z,27.74
2017-08-26T14:25:16.398Z,27.72
2017-08-26T14:26:16.301Z,27.49
2017-08-26T14:27:16.303Z,27.39
2017-08-26T14:28:16.306Z,27.25
2017-08-26T14:29:16.308Z,27.18
2017-08-26T14:30:16.310Z,27.12
2017-08-26T14:31:16.412Z,27.18
2017-08-26T14:32:16.315Z,27.17
2017-08-26T14:33:16.316Z,27.12
2017-08-26T14:34:16.319Z,27.17
2017-08-26T14:35:16.320Z,27.18
2017-08-26T14:36:16.323Z,27.18
2017-08-26T14:37:16.425Z,27.04
2017-08-26T14:38:16.328Z,26.94
2017-08-26T14:39:16.329Z,26.94
2017-08-26T14:40:16.331Z,26.92
2017-08-26T14:41:16.332Z,26.89
2017-08-26T14:42:16.334Z,26.82
2017-08-26T14:43:16.437Z,26.88
2017-08-26T14:44:16.338Z,26.92
2017-08-26T14:45:16.340Z,26.92
2017-08-26T14:46:16.343Z,26.99
2017-08-26T14:47:16.344Z,26.89
2017-08-26T14:48:16.346Z,26.91
2017-08-26T14:49:16.448Z,26.92
2017-08-26T14:50:16.350Z,26.91
2017-08-26T14:51:16.353Z,26.92
2017-08-26T14:52:16.354Z,26.92
2017-08-26T14:53:16.356Z,26.77
2017-08-26T14:54:16.357Z,26.80
2017-08-26T14:55:16.662Z,26.81
2017-08-26T14:56:16.364Z,26.76
2017-08-26T14:57:16.363Z,26.75
2017-08-26T14:58:16.366Z,26.76
2017-08-26T14:59:16.368Z,26.75
2017-08-26T15:00:16.369Z,26.75
2017-08-26T15:01:16.472Z,26.81
2017-08-26T15:02:16.374Z,26.82
2017-08-26T15:03:16.376Z,26.82
2017-08-26T15:04:16.377Z,26.76
2017-08-26T15:05:16.379Z,26.67
2017-08-26T15:06:16.381Z,26.65
2017-08-26T15:07:16.484Z,26.69
2017-08-26T15:08:16.385Z,26.66
2017-08-26T15:09:16.387Z,26.52
2017-08-26T15:10:16.388Z,26.48
2017-08-26T15:11:16.393Z,26.43
2017-08-26T15:12:16.391Z,26.40
2017-08-26T15:13:16.494Z,26.33
2017-08-26T15:14:16.396Z,26.29
2017-08-26T15:15:16.397Z,26.23
2017-08-26T15:16:16.401Z,26.13
2017-08-26T15:17:16.400Z,26.07
2017-08-26T15:18:16.402Z,25.92
2017-08-26T15:19:16.504Z,25.99
2017-08-26T15:20:16.405Z,25.90
2017-08-26T15:21:16.406Z,25.88
2017-08-26T15:22:16.514Z,25.77
2017-08-26T15:23:16.409Z,25.73
2017-08-26T15:24:16.410Z,25.75
2017-08-26T15:25:16.513Z,25.67
2017-08-26T15:26:16.414Z,25.77
2017-08-26T15:27:16.414Z,25.65
2017-08-26T15:28:16.414Z,25.65
2017-08-26T15:29:16.417Z,25.57
2017-08-26T15:30:16.419Z,25.50
2017-08-26T15:31:16.521Z,25.51
2017-08-26T15:32:16.422Z,25.50
2017-08-26T15:33:16.425Z,25.33
2017-08-26T15:34:16.424Z,25.28
2017-08-26T15:35:16.426Z,25.24
2017-08-26T15:36:16.427Z,25.06
2017-08-26T15:37:16.529Z,24.91
2017-08-26T15:38:16.530Z,24.87
2017-08-26T15:39:16.516Z,24.77
2017-08-26T15:40:16.431Z,24.68
2017-08-26T15:41:16.436Z,24.55
2017-08-26T15:42:16.440Z,24.57
2017-08-26T15:43:16.435Z,24.52
2017-08-26T15:44:16.535Z,24.45
2017-08-26T15:45:16.437Z,24.34
2017-08-26T15:46:16.438Z,24.25
2017-08-26T15:47:16.440Z,24.30
2017-08-26T15:48:16.437Z,24.25
2017-08-26T15:49:16.741Z,24.21
2017-08-26T15:50:16.542Z,24.13
2017-08-26T15:51:16.442Z,24.09
2017-08-26T15:52:16.444Z,24.10
2017-08-26T15:53:16.443Z,24.03
2017-08-26T15:54:16.443Z,23.94
2017-08-26T15:55:16.446Z,23.87
2017-08-26T15:56:16.549Z,23.87
2017-08-26T15:57:16.445Z,23.72
2017-08-26T15:58:16.446Z,23.63
2017-08-26T15:59:16.447Z,23.50
2017-08-26T16:00:16.446Z,23.48
2017-08-26T16:01:16.448Z,23.36
2017-08-26T16:02:16.548Z,23.23
2017-08-26T16:03:16.448Z,23.28
2017-08-26T16:04:16.447Z,23.13
2017-08-26T16:05:16.448Z,23.00
2017-08-26T16:06:16.449Z,22.92
2017-08-26T16:07:16.447Z,22.64
2017-08-26T16:08:16.551Z,22.40
2017-08-26T16:09:16.446Z,21.88
2017-08-26T16:10:16.447Z,21.62
2017-08-26T16:11:16.447Z,21.47
2017-08-26T16:12:16.445Z,21.43
2017-08-26T16:13:16.445Z,21.37
2017-08-26T16:14:16.543Z,21.07
2017-08-26T16:15:16.442Z,20.97
2017-08-26T16:16:16.440Z,20.87
2017-08-26T16:17:16.438Z,20.54
2017-08-26T16:18:16.437Z,20.42
2017-08-26T16:19:16.435Z,20.35
2017-08-26T16:20:16.535Z,20.16
2017-08-26T16:21:16.434Z,20.10
2017-08-26T16:22:16.429Z,19.98
2017-08-26T16:23:16.429Z,19.86
2017-08-26T16:24:16.428Z,19.63
2017-08-26T16:25:16.442Z,19.51
2017-08-26T16:26:16.523Z,19.36
2017-08-26T16:27:16.422Z,19.19
2017-08-26T16:28:16.418Z,19.13
2017-08-26T16:29:16.416Z,19.07
2017-08-26T16:30:16.414Z,18.88
2017-08-26T16:31:16.413Z,18.70
2017-08-26T16:32:16.508Z,18.72
2017-08-26T16:33:16.407Z,18.58
2017-08-26T16:34:16.403Z,18.42
2017-08-26T16:35:16.418Z,18.33
2017-08-26T16:36:16.397Z,18.42
2017-08-26T16:37:16.394Z,18.25
2017-08-26T16:38:16.641Z,18.21
2017-08-26T16:39:16.389Z,18.21
2017-08-26T16:40:16.385Z,18.26
2017-08-26T16:41:16.382Z,18.08
2017-08-26T16:42:16.379Z,18.05
2017-08-26T16:43:16.376Z,17.96
2017-08-26T16:44:16.472Z,17.77
2017-08-26T16:45:16.368Z,17.77
2017-08-26T16:46:16.366Z,17.71
2017-08-26T16:47:16.362Z,17.71
2017-08-26T16:48:16.358Z,17.64
2017-08-26T16:49:16.356Z,17.66
2017-08-26T16:50:16.453Z,17.66
2017-08-26T16:51:16.349Z,17.70
2017-08-26T16:52:16.346Z,17.56
2017-08-26T16:53:16.341Z,17.58
2017-08-26T16:54:16.337Z,17.55
2017-08-26T16:55:16.336Z,17.48
2017-08-26T16:56:16.579Z,17.40
2017-08-26T16:57:16.326Z,17.31
2017-08-26T16:58:16.322Z,17.38
2017-08-26T16:59:16.318Z,17.28
2017-08-26T17:00:16.315Z,17.18
2017-08-26T17:01:16.309Z,17.22
2017-08-26T17:02:16.407Z,17.21
2017-08-26T17:03:16.302Z,17.14
2017-08-26T17:04:16.298Z,17.03
2017-08-26T17:05:16.293Z,17.06
2017-08-26T17:06:16.290Z,17.12
2017-08-26T17:07:16.286Z,17.00
2017-08-26T17:08:16.381Z,17.03
2017-08-26T17:09:16.528Z,16.91
2017-08-26T17:10:16.273Z,16.83
2017-08-26T17:11:16.268Z,16.81
2017-08-26T17:12:16.264Z,16.82
2017-08-26T17:13:16.261Z,16.78
2017-08-26T17:14:16.254Z,16.79
2017-08-26T17:15:16.351Z,16.68
2017-08-26T17:16:16.246Z,16.76
2017-08-26T17:17:16.241Z,16.58
2017-08-26T17:18:16.236Z,16.60
2017-08-26T17:19:16.232Z,16.58
2017-08-26T17:20:16.231Z,16.57
2017-08-26T17:21:16.322Z,16.70
2017-08-26T17:22:16.218Z,16.75
2017-08-26T17:23:16.212Z,16.75
2017-08-26T17:24:16.207Z,16.78
2017-08-26T17:25:16.203Z,16.76
2017-08-26T17:26:16.199Z,16.82
2017-08-26T17:27:16.294Z,16.81
2017-08-26T17:28:16.188Z,16.82
2017-08-26T17:29:16.185Z,16.82
2017-08-26T17:30:16.178Z,16.82
2017-08-26T17:31:16.191Z,16.83
2017-08-26T17:32:16.170Z,16.81
2017-08-26T17:33:16.266Z,16.86
2017-08-26T17:34:16.160Z,16.85
2017-08-26T17:35:16.156Z,16.85